Bartonsville, PA (18321)

10:31 PM EDT on August 28, 2016 (GMT -0400)
Pocono Laurel Lake | | Change Station

Elev 899 ft 41.02 °N, 75.28 °W | Updated 1 second ago

Clear
Clear
69.4 °F
Feels Like 69.4 °F
N
0.0
Wind Variable Wind from ENE

Today
High -- | Low -- °F
--% Chance of Precip.
Yesterday
High -- | Low -- °F
Precip. -- in
Pressure 30.19 in
Visibility 10.0 miles
Clouds Clear
Dew Point 67 °F
Humidity 93%
Rainfall 0.00 in
Snow Depth Not available.
6:24 AM 7:39 PM
Waning Crescent, 11% visible
METAR KMPO 290153Z AUTO 29003KT 10SM CLR 19/16 A3022 RMK AO2 SLP224 T01940161 $
Pressure 30.19 in
Visibility 10.0 miles
Clouds Clear
Dew Point 67 °F
Humidity 93%
Rainfall 0.00 in
Snow Depth Not available.
6:24 AM 7:39 PM
Waning Crescent, 11% visible
METAR KMPO 290153Z AUTO 29003KT 10SM CLR 19/16 A3022 RMK AO2 SLP224 T01940161 $

10-Day Weather Forecast

Almanac

Astronomy

Aug. 28, 2016 Rise Set
Actual Time
Civil Twilight
Nautical Twilight
Astronomical Twilight
Moon
Length of Visible Light
Length of Day
Tomorrow will be .
, % of the Moon is Illuminated

Today's Extremes

State Highs State Lows

Community

WunderPhotos

Upload Photos

1,935,772 photos uploaded!

WunderBlog® & News

Nearby

Air Quality

  Air Quality AQ Index Pollutant
Not available.

Snow Depth

Station Depth Elevation

Earthquake Activity

City Distance Mag. Time & Date
Minimum magnitude displayed is 2.5.

Coastal Water Temperatures

Place Temperature

Stations

Nearby Weather Stations

Station Location Temp. Windchill Dew Point Humidity Wind Precip. Elev Updated Type
                   

Watches & Warnings

There are currently no watches in effect.